sensor_id;sensor_type;location;lat;lon;timestamp;pressure;altitude;pressure_sealevel;temperature;humidity
12963;BME280;6546;49.882;8.666;2023-07-08T00:00:39;100038.19;;;21.90;41.68
12963;BME280;6546;49.882;8.666;2023-07-08T00:03:06;100049.94;;;22.00;41.52
12963;BME280;6546;49.882;8.666;2023-07-08T00:05:33;100053.59;;;21.98;41.38
12963;BME280;6546;49.882;8.666;2023-07-08T00:08:00;100043.06;;;21.98;41.43
12963;BME280;6546;49.882;8.666;2023-07-08T00:10:28;100037.44;;;21.95;41.35
12963;BME280;6546;49.882;8.666;2023-07-08T00:12:56;100033.31;;;21.99;41.30
12963;BME280;6546;49.882;8.666;2023-07-08T00:15:25;100031.56;;;22.05;41.14
12963;BME280;6546;49.882;8.666;2023-07-08T00:17:52;100023.16;;;22.08;41.06
12963;BME280;6546;49.882;8.666;2023-07-08T00:20:23;100026.88;;;22.07;41.09
12963;BME280;6546;49.882;8.666;2023-07-08T00:22:54;100030.94;;;22.14;40.77
12963;BME280;6546;49.882;8.666;2023-07-08T00:25:22;100034.78;;;22.07;41.07
12963;BME280;6546;49.882;8.666;2023-07-08T00:27:49;100031.06;;;22.08;40.83
12963;BME280;6546;49.882;8.666;2023-07-08T00:30:23;100030.28;;;22.07;41.05
12963;BME280;6546;49.882;8.666;2023-07-08T00:32:51;100027.88;;;22.06;40.99
12963;BME280;6546;49.882;8.666;2023-07-08T00:35:27;100029.41;;;22.02;41.43
12963;BME280;6546;49.882;8.666;2023-07-08T00:37:55;100033.63;;;22.03;41.97
12963;BME280;6546;49.882;8.666;2023-07-08T00:40:28;100026.75;;;22.02;41.32
12963;BME280;6546;49.882;8.666;2023-07-08T00:42:56;100027.22;;;21.98;41.93
12963;BME280;6546;49.882;8.666;2023-07-08T00:45:32;100032.28;;;21.88;42.52
12963;BME280;6546;49.882;8.666;2023-07-08T00:48:06;100026.47;;;21.86;42.89
12963;BME280;6546;49.882;8.666;2023-07-08T00:50:34;100031.16;;;21.84;42.82
12963;BME280;6546;49.882;8.666;2023-07-08T00:53:21;100029.00;;;21.81;42.39
12963;BME280;6546;49.882;8.666;2023-07-08T00:55:48;100030.19;;;21.74;43.05
12963;BME280;6546;49.882;8.666;2023-07-08T00:58:19;100034.66;;;21.73;42.96
12963;BME280;6546;49.882;8.666;2023-07-08T01:00:48;100037.97;;;21.69;42.48
12963;BME280;6546;49.882;8.666;2023-07-08T01:03:16;100039.25;;;21.66;42.33
12963;BME280;6546;49.882;8.666;2023-07-08T01:05:46;100044.88;;;21.70;42.34
12963;BME280;6546;49.882;8.666;2023-07-08T01:08:13;100043.66;;;21.61;42.81
12963;BME280;6546;49.882;8.666;2023-07-08T01:10:46;100055.47;;;21.58;43.48
12963;BME280;6546;49.882;8.666;2023-07-08T01:13:15;100057.28;;;21.58;43.26
12963;BME280;6546;49.882;8.666;2023-07-08T01:15:45;100056.84;;;21.49;44.01
12963;BME280;6546;49.882;8.666;2023-07-08T01:18:14;100058.34;;;21.45;43.85
12963;BME280;6546;49.882;8.666;2023-07-08T01:20:43;100060.31;;;21.38;44.43
12963;BME280;6546;49.882;8.666;2023-07-08T01:23:14;100061.34;;;21.37;44.20
12963;BME280;6546;49.882;8.666;2023-07-08T01:25:43;100065.00;;;21.36;44.29
12963;BME280;6546;49.882;8.666;2023-07-08T01:28:10;100072.47;;;21.27;44.50
12963;BME280;6546;49.882;8.666;2023-07-08T01:30:37;100069.03;;;21.27;44.54
12963;BME280;6546;49.882;8.666;2023-07-08T01:33:07;100060.56;;;21.25;44.28
12963;BME280;6546;49.882;8.666;2023-07-08T01:35:38;100056.31;;;21.24;44.26
12963;BME280;6546;49.882;8.666;2023-07-08T01:38:05;100054.72;;;21.23;44.04
12963;BME280;6546;49.882;8.666;2023-07-08T01:40:38;100053.59;;;21.19;44.04
12963;BME280;6546;49.882;8.666;2023-07-08T01:43:05;100040.09;;;21.15;44.39
12963;BME280;6546;49.882;8.666;2023-07-08T01:45:34;100041.56;;;21.11;44.47
12963;BME280;6546;49.882;8.666;2023-07-08T01:48:06;100045.66;;;21.07;44.23
12963;BME280;6546;49.882;8.666;2023-07-08T01:50:35;100037.09;;;21.00;44.56
12963;BME280;6546;49.882;8.666;2023-07-08T01:53:14;100042.03;;;20.97;44.79
12963;BME280;6546;49.882;8.666;2023-07-08T01:55:42;100033.78;;;20.93;45.17
12963;BME280;6546;49.882;8.666;2023-07-08T01:58:09;100028.63;;;20.86;44.85
12963;BME280;6546;49.882;8.666;2023-07-08T02:00:35;100034.56;;;20.82;45.53
12963;BME280;6546;49.882;8.666;2023-07-08T02:03:02;100026.47;;;20.83;45.30
12963;BME280;6546;49.882;8.666;2023-07-08T02:05:29;100029.19;;;20.88;44.83
12963;BME280;6546;49.882;8.666;2023-07-08T02:07:55;100030.09;;;20.94;44.23
12963;BME280;6546;49.882;8.666;2023-07-08T02:10:22;100020.38;;;20.94;43.79
12963;BME280;6546;49.882;8.666;2023-07-08T02:12:52;100022.44;;;20.92;43.94
12963;BME280;6546;49.882;8.666;2023-07-08T02:15:18;100028.88;;;20.97;44.75
12963;BME280;6546;49.882;8.666;2023-07-08T02:17:45;100021.66;;;20.80;45.43
12963;BME280;6546;49.882;8.666;2023-07-08T02:20:11;100023.72;;;20.67;45.89
12963;BME280;6546;49.882;8.666;2023-07-08T02:22:38;100022.31;;;20.53;46.28
12963;BME280;6546;49.882;8.666;2023-07-08T02:25:06;100021.28;;;20.42;46.74
12963;BME280;6546;49.882;8.666;2023-07-08T02:27:34;100018.28;;;20.27;47.07
12963;BME280;6546;49.882;8.666;2023-07-08T02:30:02;100015.16;;;20.18;47.12
12963;BME280;6546;49.882;8.666;2023-07-08T02:32:29;100015.28;;;20.23;46.44
12963;BME280;6546;49.882;8.666;2023-07-08T02:35:00;100012.75;;;20.17;46.52
12963;BME280;6546;49.882;8.666;2023-07-08T02:37:28;100019.16;;;20.21;46.24
12963;BME280;6546;49.882;8.666;2023-07-08T02:39:55;100018.09;;;20.10;46.37
12963;BME280;6546;49.882;8.666;2023-07-08T02:42:21;100016.72;;;20.08;46.52
12963;BME280;6546;49.882;8.666;2023-07-08T02:44:48;100011.38;;;20.03;46.54
12963;BME280;6546;49.882;8.666;2023-07-08T02:47:16;100011.00;;;19.99;46.79
12963;BME280;6546;49.882;8.666;2023-07-08T02:49:42;100015.56;;;19.92;46.97
12963;BME280;6546;49.882;8.666;2023-07-08T02:52:11;100027.31;;;19.89;47.45
12963;BME280;6546;49.882;8.666;2023-07-08T02:54:37;100035.06;;;19.84;47.92
12963;BME280;6546;49.882;8.666;2023-07-08T02:57:04;100041.47;;;19.88;48.21
12963;BME280;6546;49.882;8.666;2023-07-08T02:59:31;100043.28;;;19.88;48.04
12963;BME280;6546;49.882;8.666;2023-07-08T03:01:57;100042.47;;;20.06;46.05
12963;BME280;6546;49.882;8.666;2023-07-08T03:04:25;100043.59;;;20.10;45.45
12963;BME280;6546;49.882;8.666;2023-07-08T03:06:52;100043.59;;;20.10;45.37
12963;BME280;6546;49.882;8.666;2023-07-08T03:09:19;100036.50;;;20.10;45.45
12963;BME280;6546;49.882;8.666;2023-07-08T03:11:46;100041.56;;;20.12;45.16
12963;BME280;6546;49.882;8.666;2023-07-08T03:14:12;100043.16;;;20.13;45.23
12963;BME280;6546;49.882;8.666;2023-07-08T03:16:39;100045.47;;;20.21;45.36
12963;BME280;6546;49.882;8.666;2023-07-08T03:19:05;100048.66;;;20.23;45.19
12963;BME280;6546;49.882;8.666;2023-07-08T03:21:33;100047.81;;;20.29;45.35
12963;BME280;6546;49.882;8.666;2023-07-08T03:24:00;100042.94;;;20.26;45.36
12963;BME280;6546;49.882;8.666;2023-07-08T03:26:27;100047.22;;;20.27;45.71
12963;BME280;6546;49.882;8.666;2023-07-08T03:28:53;100054.09;;;20.28;45.35
12963;BME280;6546;49.882;8.666;2023-07-08T03:31:20;100056.72;;;20.28;45.41
12963;BME280;6546;49.882;8.666;2023-07-08T03:33:46;100051.00;;;20.31;45.04
12963;BME280;6546;49.882;8.666;2023-07-08T03:36:16;100048.59;;;20.29;44.54
12963;BME280;6546;49.882;8.666;2023-07-08T03:38:49;100047.88;;;20.22;44.64
12963;BME280;6546;49.882;8.666;2023-07-08T03:41:16;100051.75;;;20.20;45.19
12963;BME280;6546;49.882;8.666;2023-07-08T03:43:43;100059.59;;;20.08;45.42
12963;BME280;6546;49.882;8.666;2023-07-08T03:46:10;100054.06;;;19.98;45.73
12963;BME280;6546;49.882;8.666;2023-07-08T03:48:36;100052.88;;;19.82;46.31
12963;BME280;6546;49.882;8.666;2023-07-08T03:51:03;100053.63;;;19.71;46.91
12963;BME280;6546;49.882;8.666;2023-07-08T03:53:30;100060.06;;;19.57;47.03
12963;BME280;6546;49.882;8.666;2023-07-08T03:55:58;100064.66;;;19.44;47.68
12963;BME280;6546;49.882;8.666;2023-07-08T03:58:24;100059.41;;;19.44;48.07
12963;BME280;6546;49.882;8.666;2023-07-08T04:00:51;100062.84;;;19.44;48.17
12963;BME280;6546;49.882;8.666;2023-07-08T04:03:17;100048.66;;;19.27;48.39
12963;BME280;6546;49.882;8.666;2023-07-08T04:05:44;100049.59;;;19.32;48.48
12963;BME280;6546;49.882;8.666;2023-07-08T04:08:11;100053.91;;;19.27;48.72
12963;BME280;6546;49.882;8.666;2023-07-08T04:10:37;100055.59;;;19.21;48.93
12963;BME280;6546;49.882;8.666;2023-07-08T04:13:05;100057.56;;;19.26;48.71
12963;BME280;6546;49.882;8.666;2023-07-08T04:15:31;100057.91;;;19.29;48.80
12963;BME280;6546;49.882;8.666;2023-07-08T04:17:58;100056.53;;;19.27;49.00
12963;BME280;6546;49.882;8.666;2023-07-08T04:20:25;100059.03;;;19.22;49.35
12963;BME280;6546;49.882;8.666;2023-07-08T04:22:51;100061.44;;;19.23;49.59
12963;BME280;6546;49.882;8.666;2023-07-08T04:25:18;100067.63;;;19.29;49.67
12963;BME280;6546;49.882;8.666;2023-07-08T04:27:45;100061.66;;;19.22;50.10
12963;BME280;6546;49.882;8.666;2023-07-08T04:30:20;100057.69;;;19.13;50.06
12963;BME280;6546;49.882;8.666;2023-07-08T04:32:49;100069.00;;;19.13;49.91
12963;BME280;6546;49.882;8.666;2023-07-08T04:35:16;100065.94;;;19.16;49.93
12963;BME280;6546;49.882;8.666;2023-07-08T04:37:43;100056.53;;;19.27;49.31
12963;BME280;6546;49.882;8.666;2023-07-08T04:40:17;100062.09;;;19.37;49.22
12963;BME280;6546;49.882;8.666;2023-07-08T04:42:45;100062.63;;;19.46;48.84
12963;BME280;6546;49.882;8.666;2023-07-08T04:45:15;100054.09;;;19.50;48.71
12963;BME280;6546;49.882;8.666;2023-07-08T04:47:43;100063.34;;;19.53;48.40
12963;BME280;6546;49.882;8.666;2023-07-08T04:50:12;100049.19;;;19.54;48.52
12963;BME280;6546;49.882;8.666;2023-07-08T04:52:39;100052.41;;;19.56;48.40
12963;BME280;6546;49.882;8.666;2023-07-08T04:55:06;100055.97;;;19.61;47.96
12963;BME280;6546;49.882;8.666;2023-07-08T04:57:34;100059.47;;;19.73;47.75
12963;BME280;6546;49.882;8.666;2023-07-08T05:00:01;100066.66;;;19.78;47.82
12963;BME280;6546;49.882;8.666;2023-07-08T05:02:30;100069.38;;;19.89;47.76
12963;BME280;6546;49.882;8.666;2023-07-08T05:04:56;100070.13;;;20.08;47.17
12963;BME280;6546;49.882;8.666;2023-07-08T05:07:23;100074.16;;;20.22;46.72
12963;BME280;6546;49.882;8.666;2023-07-08T05:09:49;100070.34;;;20.36;46.53
12963;BME280;6546;49.882;8.666;2023-07-08T05:12:16;100079.41;;;20.52;45.84
12963;BME280;6546;49.882;8.666;2023-07-08T05:14:43;100086.72;;;20.62;45.48
12963;BME280;6546;49.882;8.666;2023-07-08T05:17:09;100086.06;;;20.66;45.20
12963;BME280;6546;49.882;8.666;2023-07-08T05:19:41;100074.72;;;20.66;45.11
12963;BME280;6546;49.882;8.666;2023-07-08T05:22:09;100079.53;;;20.69;45.19
12963;BME280;6546;49.882;8.666;2023-07-08T05:24:36;100075.19;;;20.74;44.93
12963;BME280;6546;49.882;8.666;2023-07-08T05:27:03;100077.25;;;20.72;45.12
12963;BME280;6546;49.882;8.666;2023-07-08T05:29:30;100072.13;;;20.77;45.13
12963;BME280;6546;49.882;8.666;2023-07-08T05:31:56;100067.75;;;20.94;44.27
12963;BME280;6546;49.882;8.666;2023-07-08T05:34:23;100072.78;;;21.08;44.14
12963;BME280;6546;49.882;8.666;2023-07-08T05:36:51;100067.53;;;21.31;43.94
12963;BME280;6546;49.882;8.666;2023-07-08T05:39:17;100075.41;;;21.54;43.50
12963;BME280;6546;49.882;8.666;2023-07-08T05:41:44;100064.81;;;22.06;42.64
12963;BME280;6546;49.882;8.666;2023-07-08T05:44:11;100064.53;;;22.52;40.70
12963;BME280;6546;49.882;8.666;2023-07-08T05:46:37;100064.88;;;22.72;40.15
12963;BME280;6546;49.882;8.666;2023-07-08T05:49:04;100070.28;;;22.99;39.98
12963;BME280;6546;49.882;8.666;2023-07-08T05:51:31;100088.31;;;23.24;41.13
12963;BME280;6546;49.882;8.666;2023-07-08T05:53:59;100095.69;;;23.22;38.47
12963;BME280;6546;49.882;8.666;2023-07-08T05:56:25;100099.81;;;23.13;38.63
12963;BME280;6546;49.882;8.666;2023-07-08T05:58:53;100105.28;;;22.89;39.15
12963;BME280;6546;49.882;8.666;2023-07-08T06:01:19;100104.56;;;22.77;39.34
12963;BME280;6546;49.882;8.666;2023-07-08T06:03:47;100098.47;;;22.77;39.60
12963;BME280;6546;49.882;8.666;2023-07-08T06:06:13;100104.53;;;22.61;40.26
12963;BME280;6546;49.882;8.666;2023-07-08T06:08:41;100097.47;;;22.49;41.03
12963;BME280;6546;49.882;8.666;2023-07-08T06:11:09;100105.16;;;22.51;40.92
12963;BME280;6546;49.882;8.666;2023-07-08T06:13:35;100091.72;;;22.52;40.65
12963;BME280;6546;49.882;8.666;2023-07-08T06:16:02;100107.88;;;22.56;40.83
12963;BME280;6546;49.882;8.666;2023-07-08T06:18:29;100111.09;;;22.58;41.05
12963;BME280;6546;49.882;8.666;2023-07-08T06:20:58;100112.19;;;22.62;40.96
12963;BME280;6546;49.882;8.666;2023-07-08T06:23:24;100110.06;;;22.76;41.08
12963;BME280;6546;49.882;8.666;2023-07-08T06:25:51;100097.69;;;22.93;41.15
12963;BME280;6546;49.882;8.666;2023-07-08T06:28:19;100099.22;;;24.14;38.74
12963;BME280;6546;49.882;8.666;2023-07-08T06:30:46;100109.41;;;25.85;35.26
12963;BME280;6546;49.882;8.666;2023-07-08T06:33:13;100102.63;;;27.00;32.58
12963;BME280;6546;49.882;8.666;2023-07-08T06:35:40;100115.66;;;26.81;32.63
12963;BME280;6546;49.882;8.666;2023-07-08T06:38:07;100119.25;;;26.04;34.71
12963;BME280;6546;49.882;8.666;2023-07-08T06:40:34;100097.22;;;25.32;36.07
12963;BME280;6546;49.882;8.666;2023-07-08T06:43:02;100102.44;;;24.80;37.53
12963;BME280;6546;49.882;8.666;2023-07-08T06:45:30;100093.63;;;24.37;38.91
12963;BME280;6546;49.882;8.666;2023-07-08T06:47:57;100100.44;;;24.07;39.71
12963;BME280;6546;49.882;8.666;2023-07-08T06:50:24;100095.78;;;23.92;40.09
12963;BME280;6546;49.882;8.666;2023-07-08T06:52:50;100091.25;;;23.87;40.46
12963;BME280;6546;49.882;8.666;2023-07-08T06:55:17;100102.25;;;23.79;40.95
12963;BME280;6546;49.882;8.666;2023-07-08T06:57:43;100095.56;;;23.72;41.17
12963;BME280;6546;49.882;8.666;2023-07-08T07:00:11;100096.81;;;23.64;41.97
12963;BME280;6546;49.882;8.666;2023-07-08T07:02:39;100086.88;;;23.76;41.39
12963;BME280;6546;49.882;8.666;2023-07-08T07:05:06;100082.09;;;24.22;40.71
12963;BME280;6546;49.882;8.666;2023-07-08T07:07:33;100094.50;;;24.48;39.54
12963;BME280;6546;49.882;8.666;2023-07-08T07:10:00;100111.31;;;24.64;39.18
12963;BME280;6546;49.882;8.666;2023-07-08T07:12:27;100121.88;;;24.90;39.79
12963;BME280;6546;49.882;8.666;2023-07-08T07:14:53;100120.72;;;25.18;39.78
12963;BME280;6546;49.882;8.666;2023-07-08T07:17:21;100134.53;;;25.72;37.45
12963;BME280;6546;49.882;8.666;2023-07-08T07:19:49;100154.00;;;25.41;36.58
12963;BME280;6546;49.882;8.666;2023-07-08T07:22:16;100164.13;;;25.49;36.73
12963;BME280;6546;49.882;8.666;2023-07-08T07:24:43;100164.81;;;25.29;36.61
12963;BME280;6546;49.882;8.666;2023-07-08T07:27:09;100174.81;;;24.85;37.79
12963;BME280;6546;49.882;8.666;2023-07-08T07:29:41;100171.38;;;24.58;38.47
12963;BME280;6546;49.882;8.666;2023-07-08T07:32:09;100172.13;;;24.53;38.31
12963;BME280;6546;49.882;8.666;2023-07-08T07:34:36;100173.72;;;24.54;38.41
12963;BME280;6546;49.882;8.666;2023-07-08T07:37:05;100165.03;;;24.59;39.19
12963;BME280;6546;49.882;8.666;2023-07-08T07:39:34;100174.69;;;24.75;41.21
12963;BME280;6546;49.882;8.666;2023-07-08T07:42:01;100174.91;;;24.95;41.50
12963;BME280;6546;49.882;8.666;2023-07-08T07:44:27;100184.25;;;25.08;38.53
12963;BME280;6546;49.882;8.666;2023-07-08T07:46:54;100174.53;;;25.19;40.47
12963;BME280;6546;49.882;8.666;2023-07-08T07:49:22;100178.09;;;25.34;38.18
12963;BME280;6546;49.882;8.666;2023-07-08T07:51:49;100190.69;;;25.54;40.60
12963;BME280;6546;49.882;8.666;2023-07-08T07:54:17;100198.72;;;25.69;40.73
12963;BME280;6546;49.882;8.666;2023-07-08T07:56:43;100192.16;;;25.82;40.81
12963;BME280;6546;49.882;8.666;2023-07-08T07:59:10;100199.88;;;25.88;41.39
12963;BME280;6546;49.882;8.666;2023-07-08T08:01:37;100202.69;;;25.67;36.10
12963;BME280;6546;49.882;8.666;2023-07-08T08:04:04;100196.75;;;25.49;36.70
12963;BME280;6546;49.882;8.666;2023-07-08T08:06:31;100207.69;;;25.58;37.57
12963;BME280;6546;49.882;8.666;2023-07-08T08:08:57;100195.13;;;25.95;37.01
12963;BME280;6546;49.882;8.666;2023-07-08T08:11:25;100198.22;;;26.44;35.82
12963;BME280;6546;49.882;8.666;2023-07-08T08:13:52;100198.84;;;26.82;36.02
12963;BME280;6546;49.882;8.666;2023-07-08T08:16:19;100204.69;;;27.09;33.98
12963;BME280;6546;49.882;8.666;2023-07-08T08:18:45;100206.25;;;27.30;33.22
12963;BME280;6546;49.882;8.666;2023-07-08T08:21:12;100206.22;;;27.60;31.99
12963;BME280;6546;49.882;8.666;2023-07-08T08:23:40;100199.50;;;27.73;30.29
12963;BME280;6546;49.882;8.666;2023-07-08T08:26:06;100209.53;;;28.06;30.39
12963;BME280;6546;49.882;8.666;2023-07-08T08:28:34;100212.34;;;28.30;30.03
12963;BME280;6546;49.882;8.666;2023-07-08T08:31:01;100208.16;;;28.58;29.14
12963;BME280;6546;49.882;8.666;2023-07-08T08:33:27;100218.34;;;28.90;31.16
12963;BME280;6546;49.882;8.666;2023-07-08T08:35:54;100217.41;;;29.09;30.06
12963;BME280;6546;49.882;8.666;2023-07-08T08:38:21;100219.94;;;29.25;28.91
12963;BME280;6546;49.882;8.666;2023-07-08T08:40:47;100213.94;;;29.38;28.63
12963;BME280;6546;49.882;8.666;2023-07-08T08:43:20;100203.38;;;29.28;29.42
12963;BME280;6546;49.882;8.666;2023-07-08T08:45:55;100208.31;;;29.10;27.61
12963;BME280;6546;49.882;8.666;2023-07-08T08:48:24;100211.97;;;28.86;29.78
12963;BME280;6546;49.882;8.666;2023-07-08T08:50:54;100208.44;;;28.56;28.61
12963;BME280;6546;49.882;8.666;2023-07-08T08:53:23;100211.75;;;28.38;29.61
12963;BME280;6546;49.882;8.666;2023-07-08T08:55:54;100203.31;;;28.26;31.23
12963;BME280;6546;49.882;8.666;2023-07-08T08:58:30;100203.31;;;28.26;31.52
12963;BME280;6546;49.882;8.666;2023-07-08T09:01:06;100205.91;;;28.36;31.50
12963;BME280;6546;49.882;8.666;2023-07-08T09:03:42;100198.03;;;28.60;31.14
12963;BME280;6546;49.882;8.666;2023-07-08T09:06:15;100196.84;;;28.81;29.50
12963;BME280;6546;49.882;8.666;2023-07-08T09:08:43;100194.66;;;28.88;29.33
12963;BME280;6546;49.882;8.666;2023-07-08T09:11:18;100201.22;;;29.01;29.52
12963;BME280;6546;49.882;8.666;2023-07-08T09:13:49;100214.53;;;29.01;30.63
12963;BME280;6546;49.882;8.666;2023-07-08T09:16:24;100211.66;;;28.92;31.00
12963;BME280;6546;49.882;8.666;2023-07-08T09:18:58;100209.00;;;28.92;31.72
12963;BME280;6546;49.882;8.666;2023-07-08T09:21:28;100211.72;;;28.87;31.13
12963;BME280;6546;49.882;8.666;2023-07-08T09:24:00;100206.97;;;28.79;31.74
12963;BME280;6546;49.882;8.666;2023-07-08T09:26:30;100201.06;;;28.82;30.78
12963;BME280;6546;49.882;8.666;2023-07-08T09:28:59;100197.75;;;29.00;32.35
12963;BME280;6546;49.882;8.666;2023-07-08T09:31:30;100188.56;;;29.11;30.10
12963;BME280;6546;49.882;8.666;2023-07-08T09:34:06;100199.19;;;29.16;30.85
12963;BME280;6546;49.882;8.666;2023-07-08T09:36:33;100189.09;;;29.13;31.86
12963;BME280;6546;49.882;8.666;2023-07-08T09:39:00;100192.69;;;29.28;32.22
12963;BME280;6546;49.882;8.666;2023-07-08T09:41:31;100191.69;;;29.47;31.10
12963;BME280;6546;49.882;8.666;2023-07-08T09:44:16;100184.75;;;29.70;31.80
12963;BME280;6546;49.882;8.666;2023-07-08T09:46:48;100185.63;;;29.89;30.25
12963;BME280;6546;49.882;8.666;2023-07-08T09:49:17;100188.13;;;30.04;29.98
12963;BME280;6546;49.882;8.666;2023-07-08T09:51:44;100186.31;;;30.18;30.17
12963;BME280;6546;49.882;8.666;2023-07-08T09:54:10;100169.69;;;30.21;30.44
12963;BME280;6546;49.882;8.666;2023-07-08T09:56:41;100176.38;;;30.43;30.37
12963;BME280;6546;49.882;8.666;2023-07-08T09:59:12;100174.63;;;30.52;28.77
12963;BME280;6546;49.882;8.666;2023-07-08T10:01:42;100168.63;;;30.41;28.50
12963;BME280;6546;49.882;8.666;2023-07-08T10:04:11;100174.31;;;30.35;29.57
12963;BME280;6546;49.882;8.666;2023-07-08T10:06:38;100177.94;;;30.44;29.90
12963;BME280;6546;49.882;8.666;2023-07-08T10:09:09;100171.88;;;30.38;30.34
12963;BME280;6546;49.882;8.666;2023-07-08T10:11:48;100171.03;;;30.43;29.44
12963;BME280;6546;49.882;8.666;2023-07-08T10:14:25;100174.41;;;30.48;29.03
12963;BME280;6546;49.882;8.666;2023-07-08T10:16:52;100165.22;;;30.54;29.87
12963;BME280;6546;49.882;8.666;2023-07-08T10:19:23;100158.00;;;30.55;28.34
12963;BME280;6546;49.882;8.666;2023-07-08T10:21:55;100153.50;;;30.69;29.10
12963;BME280;6546;49.882;8.666;2023-07-08T10:24:36;100148.97;;;30.69;28.24
12963;BME280;6546;49.882;8.666;2023-07-08T10:27:14;100156.50;;;30.81;29.52
12963;BME280;6546;49.882;8.666;2023-07-08T10:29:50;100144.19;;;30.99;29.37
12963;BME280;6546;49.882;8.666;2023-07-08T10:32:25;100152.22;;;31.12;29.16
12963;BME280;6546;49.882;8.666;2023-07-08T10:35:01;100145.81;;;31.13;28.11
12963;BME280;6546;49.882;8.666;2023-07-08T10:37:39;100151.44;;;31.26;28.47
12963;BME280;6546;49.882;8.666;2023-07-08T10:40:33;100147.69;;;31.27;28.82
12963;BME280;6546;49.882;8.666;2023-07-08T10:43:11;100139.75;;;31.35;27.52
12963;BME280;6546;49.882;8.666;2023-07-08T10:45:47;100140.97;;;31.43;28.24
12963;BME280;6546;49.882;8.666;2023-07-08T10:48:25;100141.75;;;31.43;27.23
12963;BME280;6546;49.882;8.666;2023-07-08T10:51:09;100142.94;;;31.51;27.99
12963;BME280;6546;49.882;8.666;2023-07-08T10:53:50;100136.41;;;31.57;27.00
12963;BME280;6546;49.882;8.666;2023-07-08T10:56:28;100137.13;;;31.62;26.79
12963;BME280;6546;49.882;8.666;2023-07-08T10:59:19;100141.28;;;31.55;27.63
12963;BME280;6546;49.882;8.666;2023-07-08T11:02:02;100138.50;;;31.60;27.33
12963;BME280;6546;49.882;8.666;2023-07-08T11:04:40;100137.59;;;31.51;27.01
12963;BME280;6546;49.882;8.666;2023-07-08T11:07:28;100140.38;;;31.46;27.88
12963;BME280;6546;49.882;8.666;2023-07-08T11:09:59;100141.84;;;31.38;26.61
12963;BME280;6546;49.882;8.666;2023-07-08T11:12:31;100136.38;;;31.16;26.93
12963;BME280;6546;49.882;8.666;2023-07-08T11:15:05;100135.06;;;31.00;27.61
12963;BME280;6546;49.882;8.666;2023-07-08T11:17:37;100134.16;;;30.91;27.53
12963;BME280;6546;49.882;8.666;2023-07-08T11:20:13;100128.09;;;30.85;28.58
12963;BME280;6546;49.882;8.666;2023-07-08T11:22:49;100129.00;;;30.94;27.83
12963;BME280;6546;49.882;8.666;2023-07-08T11:25:18;100127.84;;;31.00;28.07
12963;BME280;6546;49.882;8.666;2023-07-08T11:27:47;100118.03;;;30.96;27.52
12963;BME280;6546;49.882;8.666;2023-07-08T11:30:16;100124.31;;;30.86;27.73
12963;BME280;6546;49.882;8.666;2023-07-08T11:32:45;100119.56;;;30.83;26.06
12963;BME280;6546;49.882;8.666;2023-07-08T11:35:19;100120.59;;;30.55;26.35
12963;BME280;6546;49.882;8.666;2023-07-08T11:37:48;100127.44;;;30.61;25.76
12963;BME280;6546;49.882;8.666;2023-07-08T11:40:19;100117.44;;;30.66;26.08
12963;BME280;6546;49.882;8.666;2023-07-08T11:42:48;100113.41;;;30.69;25.41
12963;BME280;6546;49.882;8.666;2023-07-08T11:45:24;100110.75;;;30.69;24.69
12963;BME280;6546;49.882;8.666;2023-07-08T11:47:52;100115.66;;;30.62;24.53
12963;BME280;6546;49.882;8.666;2023-07-08T11:50:21;100109.03;;;30.41;26.44
12963;BME280;6546;49.882;8.666;2023-07-08T11:52:58;100117.00;;;30.46;27.90
12963;BME280;6546;49.882;8.666;2023-07-08T11:55:26;100113.47;;;30.64;26.73
12963;BME280;6546;49.882;8.666;2023-07-08T11:57:59;100108.56;;;30.71;25.67
12963;BME280;6546;49.882;8.666;2023-07-08T12:00:30;100111.44;;;30.75;26.90
12963;BME280;6546;49.882;8.666;2023-07-08T12:03:04;100099.66;;;30.76;26.00
12963;BME280;6546;49.882;8.666;2023-07-08T12:05:43;100104.88;;;30.67;26.27
12963;BME280;6546;49.882;8.666;2023-07-08T12:08:14;100104.50;;;30.73;25.21
12963;BME280;6546;49.882;8.666;2023-07-08T12:10:46;100102.41;;;30.70;25.31
12963;BME280;6546;49.882;8.666;2023-07-08T12:13:16;100094.00;;;30.77;26.03
12963;BME280;6546;49.882;8.666;2023-07-08T12:15:43;100099.16;;;30.87;25.87
12963;BME280;6546;49.882;8.666;2023-07-08T12:18:14;100088.38;;;30.92;26.24
12963;BME280;6546;49.882;8.666;2023-07-08T12:20:44;100097.50;;;30.91;27.21
12963;BME280;6546;49.882;8.666;2023-07-08T12:23:15;100097.16;;;30.98;27.34
12963;BME280;6546;49.882;8.666;2023-07-08T12:25:42;100091.41;;;31.04;27.62
12963;BME280;6546;49.882;8.666;2023-07-08T12:28:10;100079.69;;;31.00;27.03
12963;BME280;6546;49.882;8.666;2023-07-08T12:30:38;100083.72;;;30.84;26.49
12963;BME280;6546;49.882;8.666;2023-07-08T12:33:09;100072.50;;;30.68;27.26
12963;BME280;6546;49.882;8.666;2023-07-08T12:35:37;100071.59;;;30.59;27.37
12963;BME280;6546;49.882;8.666;2023-07-08T12:38:14;100075.25;;;30.63;27.40
12963;BME280;6546;49.882;8.666;2023-07-08T12:40:44;100073.19;;;30.74;27.73
12963;BME280;6546;49.882;8.666;2023-07-08T12:43:10;100084.78;;;30.83;28.33
12963;BME280;6546;49.882;8.666;2023-07-08T12:45:38;100079.84;;;30.90;27.33
12963;BME280;6546;49.882;8.666;2023-07-08T12:48:05;100082.03;;;30.88;27.42
12963;BME280;6546;49.882;8.666;2023-07-08T12:50:32;100071.84;;;30.90;27.75
12963;BME280;6546;49.882;8.666;2023-07-08T12:52:58;100080.34;;;30.92;27.54
12963;BME280;6546;49.882;8.666;2023-07-08T12:55:30;100069.13;;;30.95;27.72
12963;BME280;6546;49.882;8.666;2023-07-08T12:57:57;100066.44;;;30.95;27.57
12963;BME280;6546;49.882;8.666;2023-07-08T13:00:27;100066.78;;;30.89;27.21
12963;BME280;6546;49.882;8.666;2023-07-08T13:02:57;100060.44;;;30.85;27.56
12963;BME280;6546;49.882;8.666;2023-07-08T13:05:26;100057.09;;;30.79;28.13
12963;BME280;6546;49.882;8.666;2023-07-08T13:07:55;100065.97;;;30.75;28.34
12963;BME280;6546;49.882;8.666;2023-07-08T13:10:24;100065.50;;;30.73;28.41